createdAt,value
2022-11-25T00:01:34.592Z,6.40
2022-11-25T00:04:02.990Z,6.40
2022-11-25T00:06:35.990Z,6.40
2022-11-25T00:09:10.061Z,6.40
2022-11-25T00:11:43.149Z,6.40
2022-11-25T00:14:15.054Z,6.30
2022-11-25T00:16:47.967Z,6.40
2022-11-25T00:19:17.328Z,6.30
2022-11-25T00:21:45.445Z,6.30
2022-11-25T00:24:16.518Z,6.40
2022-11-25T00:26:44.904Z,6.40
2022-11-25T00:29:14.242Z,6.40
2022-11-25T00:31:42.537Z,6.40
2022-11-25T00:34:14.151Z,6.40
2022-11-25T00:36:42.263Z,6.40
2022-11-25T00:39:14.795Z,6.40
2022-11-25T00:42:03.687Z,6.40
2022-11-25T00:44:39.628Z,6.50
2022-11-25T00:47:19.486Z,6.40
2022-11-25T00:49:54.854Z,6.40
2022-11-25T00:52:27.633Z,6.40
2022-11-25T00:54:55.456Z,6.40
2022-11-25T00:57:24.369Z,6.40
2022-11-25T00:59:52.284Z,6.40
2022-11-25T01:02:22.428Z,6.50
2022-11-25T01:04:50.362Z,6.50
2022-11-25T01:07:19.302Z,6.50
2022-11-25T01:09:49.170Z,6.50
2022-11-25T01:12:17.111Z,6.50
2022-11-25T01:14:44.928Z,6.60
2022-11-25T01:17:15.122Z,6.60
2022-11-25T01:19:43.161Z,6.60
2022-11-25T01:22:10.997Z,6.60
2022-11-25T01:24:39.095Z,6.60
2022-11-25T01:27:07.120Z,6.60
2022-11-25T01:29:34.961Z,6.60
2022-11-25T01:32:02.869Z,6.60
2022-11-25T01:34:32.612Z,6.60
2022-11-25T01:37:00.463Z,6.60
2022-11-25T01:39:32.536Z,6.60
2022-11-25T01:42:02.380Z,6.60
2022-11-25T01:44:32.643Z,6.60
2022-11-25T01:47:24.477Z,6.50
2022-11-25T01:50:12.946Z,6.60
2022-11-25T01:52:48.740Z,6.60
2022-11-25T01:55:25.397Z,6.60
2022-11-25T01:58:12.248Z,6.60
2022-11-25T02:00:40.572Z,6.60
2022-11-25T02:03:09.661Z,6.50
2022-11-25T02:05:56.427Z,6.50
2022-11-25T02:08:26.508Z,6.50
2022-11-25T02:10:57.357Z,6.60
2022-11-25T02:13:26.097Z,6.50
2022-11-25T02:15:54.003Z,6.60
2022-11-25T02:18:27.071Z,6.60
2022-11-25T02:20:55.335Z,6.60
2022-11-25T02:23:53.255Z,6.60
2022-11-25T02:26:21.846Z,6.60
2022-11-25T02:28:51.418Z,6.70
2022-11-25T02:31:22.147Z,6.70
2022-11-25T02:33:50.541Z,6.70
2022-11-25T02:36:22.836Z,6.70
2022-11-25T02:39:00.806Z,6.80
2022-11-25T02:41:35.001Z,6.80
2022-11-25T02:44:06.536Z,6.80
2022-11-25T02:46:34.729Z,6.80
2022-11-25T02:49:09.656Z,6.80
2022-11-25T02:51:42.012Z,6.80
2022-11-25T02:54:12.385Z,6.80
2022-11-25T02:56:40.530Z,6.80
2022-11-25T02:59:10.707Z,6.80
2022-11-25T03:01:39.923Z,6.80
2022-11-25T03:04:10.402Z,6.80
2022-11-25T03:06:38.339Z,6.80
2022-11-25T03:09:08.408Z,6.80
2022-11-25T03:11:58.031Z,6.80
2022-11-25T03:14:26.089Z,6.70
2022-11-25T03:16:53.995Z,6.70
2022-11-25T03:19:21.825Z,6.60
2022-11-25T03:21:49.649Z,6.70
2022-11-25T03:24:17.432Z,6.60
2022-11-25T03:26:48.521Z,6.60
2022-11-25T03:29:16.510Z,6.50
2022-11-25T03:31:44.558Z,6.50
2022-11-25T03:34:13.303Z,6.40
2022-11-25T03:36:41.551Z,6.40
2022-11-25T03:39:10.603Z,6.40
2022-11-25T03:41:39.038Z,6.40
2022-11-25T03:44:07.045Z,6.40
2022-11-25T03:46:35.334Z,6.40
2022-11-25T03:49:06.322Z,6.30
2022-11-25T03:51:34.971Z,6.40
2022-11-25T03:54:02.855Z,6.30
2022-11-25T03:56:36.667Z,6.30
2022-11-25T03:59:04.562Z,6.20
2022-11-25T04:01:32.968Z,6.30
2022-11-25T04:04:00.819Z,6.30
2022-11-25T04:06:28.615Z,6.30
2022-11-25T04:08:56.479Z,6.30
2022-11-25T04:11:47.486Z,6.30
2022-11-25T04:14:15.452Z,6.40
2022-11-25T04:16:43.570Z,6.40
2022-11-25T04:19:11.547Z,6.40
2022-11-25T04:21:39.941Z,6.50
2022-11-25T04:24:08.575Z,6.50
2022-11-25T04:26:36.580Z,6.50
2022-11-25T04:29:04.440Z,6.50
2022-11-25T04:31:32.398Z,6.40
2022-11-25T04:34:00.723Z,6.40
2022-11-25T04:36:29.062Z,6.40
2022-11-25T04:38:56.982Z,6.30
2022-11-25T04:41:24.860Z,6.40
2022-11-25T04:43:52.804Z,6.40
2022-11-25T04:46:37.098Z,6.40
2022-11-25T04:49:05.636Z,6.40
2022-11-25T04:51:33.678Z,6.40
2022-11-25T04:54:05.447Z,6.40
2022-11-25T04:56:34.790Z,6.30
2022-11-25T04:59:21.423Z,6.20
2022-11-25T05:01:49.349Z,6.10
2022-11-25T05:04:37.412Z,6.10
2022-11-25T05:07:05.777Z,6.10
2022-11-25T05:09:34.764Z,6.10
2022-11-25T05:12:25.382Z,6.10
2022-11-25T05:14:53.661Z,6.10
2022-11-25T05:17:26.781Z,6.10
2022-11-25T05:19:55.182Z,6.10
2022-11-25T05:22:27.591Z,6.10
2022-11-25T05:24:55.673Z,6.10
2022-11-25T05:27:24.835Z,6.10
2022-11-25T05:29:56.115Z,6.00
2022-11-25T05:32:25.416Z,6.10
2022-11-25T05:34:55.275Z,6.00
2022-11-25T05:37:24.735Z,6.00
2022-11-25T05:40:00.128Z,6.00
2022-11-25T05:42:30.845Z,6.00
2022-11-25T05:45:02.461Z,6.00
2022-11-25T05:47:31.676Z,6.00
2022-11-25T05:50:00.423Z,6.10
2022-11-25T05:52:28.214Z,6.10
2022-11-25T05:54:59.133Z,6.00
2022-11-25T05:57:28.731Z,5.90
2022-11-25T06:00:10.127Z,5.80
2022-11-25T06:02:51.142Z,5.80
2022-11-25T06:05:20.872Z,5.70
2022-11-25T06:07:48.762Z,5.80
2022-11-25T06:10:20.706Z,5.80
2022-11-25T06:12:49.644Z,5.80
2022-11-25T06:15:17.548Z,5.70
2022-11-25T06:17:45.361Z,5.70
2022-11-25T06:20:20.592Z,5.70
2022-11-25T06:22:48.346Z,5.70
2022-11-25T06:25:21.708Z,5.70
2022-11-25T06:28:11.815Z,5.70
2022-11-25T06:30:39.161Z,5.70
2022-11-25T06:33:15.613Z,5.70
2022-11-25T06:35:46.000Z,5.80
2022-11-25T06:38:13.820Z,5.80
2022-11-25T06:40:41.615Z,5.80
2022-11-25T06:43:09.371Z,5.80
2022-11-25T06:45:37.104Z,5.80
2022-11-25T06:48:05.461Z,5.70
2022-11-25T06:50:33.268Z,5.70
2022-11-25T06:53:02.577Z,5.70
2022-11-25T06:55:30.333Z,5.80
2022-11-25T06:58:20.276Z,5.80
2022-11-25T07:00:45.830Z,5.70
2022-11-25T07:03:13.630Z,5.80
2022-11-25T07:05:41.412Z,5.80
2022-11-25T07:08:09.160Z,5.80
2022-11-25T07:10:36.934Z,5.80
2022-11-25T07:13:04.687Z,5.80
2022-11-25T07:15:35.156Z,5.80
2022-11-25T07:18:02.941Z,5.80
2022-11-25T07:20:32.814Z,5.90
2022-11-25T07:23:00.591Z,5.90
2022-11-25T07:25:30.794Z,5.90
2022-11-25T07:27:59.807Z,6.00
2022-11-25T07:33:15.458Z,6.00
2022-11-25T07:35:43.403Z,6.00
2022-11-25T07:38:11.127Z,6.10
2022-11-25T07:40:39.040Z,6.20
2022-11-25T07:43:06.788Z,6.30
2022-11-25T07:45:34.602Z,6.40
2022-11-25T07:48:08.371Z,6.40
2022-11-25T07:50:36.235Z,6.40
2022-11-25T07:53:04.028Z,6.60
2022-11-25T07:55:32.022Z,6.60
2022-11-25T07:57:59.880Z,6.60
2022-11-25T08:00:27.728Z,6.60
2022-11-25T08:02:56.009Z,6.60
2022-11-25T08:05:23.838Z,6.60
2022-11-25T08:07:51.648Z,6.60
2022-11-25T08:10:19.454Z,6.40
2022-11-25T08:12:47.244Z,6.30
2022-11-25T08:15:15.092Z,6.30
2022-11-25T08:17:42.877Z,6.40
2022-11-25T08:20:10.973Z,6.60
2022-11-25T08:22:38.780Z,6.70
2022-11-25T08:25:07.279Z,6.70
2022-11-25T08:27:35.287Z,6.80
2022-11-25T08:30:03.636Z,6.90
2022-11-25T08:32:31.387Z,6.90
2022-11-25T08:34:59.267Z,7.00
2022-11-25T08:37:27.115Z,7.00
2022-11-25T08:39:55.231Z,7.10
2022-11-25T08:42:23.505Z,7.10
2022-11-25T08:44:56.099Z,7.10
2022-11-25T08:47:24.409Z,7.20
2022-11-25T08:49:55.694Z,7.20
2022-11-25T08:52:24.196Z,7.20
2022-11-25T08:54:52.103Z,7.30
2022-11-25T08:57:19.867Z,7.40
2022-11-25T08:59:47.639Z,7.50
2022-11-25T09:02:16.979Z,7.60
2022-11-25T09:04:45.050Z,7.60
2022-11-25T09:07:12.945Z,7.70
2022-11-25T09:09:40.790Z,7.90
2022-11-25T09:12:08.599Z,7.90
2022-11-25T09:14:36.448Z,8.00
2022-11-25T09:17:12.705Z,8.10
2022-11-25T09:19:40.535Z,8.20
2022-11-25T09:22:08.727Z,8.20
2022-11-25T09:24:36.925Z,8.10
2022-11-25T09:27:04.837Z,8.20
2022-11-25T09:29:32.767Z,8.20
2022-11-25T09:32:00.674Z,8.20
2022-11-25T09:34:28.757Z,8.20
2022-11-25T09:36:56.515Z,8.20
2022-11-25T09:39:29.591Z,8.20
2022-11-25T09:42:33.958Z,8.20
2022-11-25T09:45:46.544Z,8.30
2022-11-25T09:48:37.032Z,8.30
2022-11-25T09:51:50.847Z,8.30
2022-11-25T09:54:38.676Z,8.30
2022-11-25T09:57:37.870Z,8.30
2022-11-25T10:00:17.907Z,8.40
2022-11-25T10:03:26.916Z,8.50
2022-11-25T10:06:18.028Z,8.70
2022-11-25T10:08:56.553Z,8.70
2022-11-25T10:11:52.436Z,8.80
2022-11-25T10:15:00.653Z,9.00
2022-11-25T10:17:50.680Z,9.00
2022-11-25T10:20:38.117Z,9.10
2022-11-25T10:23:28.636Z,9.20
2022-11-25T10:26:02.781Z,9.20
2022-11-25T10:28:34.283Z,9.20
2022-11-25T10:31:32.634Z,9.20
2022-11-25T10:34:02.322Z,9.10
2022-11-25T10:36:36.504Z,9.10
2022-11-25T10:39:26.290Z,9.20
2022-11-25T10:42:12.549Z,9.10
2022-11-25T10:44:41.893Z,9.00
2022-11-25T10:47:21.164Z,9.00
2022-11-25T10:50:25.503Z,8.90
2022-11-25T10:53:14.914Z,8.80
2022-11-25T10:56:03.672Z,8.60
2022-11-25T10:58:38.048Z,8.60
2022-11-25T11:01:37.196Z,8.40
2022-11-25T11:04:15.277Z,8.10
2022-11-25T11:06:49.948Z,7.80
2022-11-25T11:09:40.899Z,7.80
2022-11-25T11:12:25.811Z,7.60
2022-11-25T11:15:13.648Z,7.60
2022-11-25T11:17:41.486Z,7.70
2022-11-25T11:20:09.195Z,7.70
2022-11-25T11:22:45.507Z,7.70
2022-11-25T11:25:23.597Z,7.70
2022-11-25T11:27:51.396Z,7.70
2022-11-25T11:30:26.176Z,7.80
2022-11-25T11:33:03.700Z,7.70
2022-11-25T11:35:54.017Z,7.70
2022-11-25T11:39:15.234Z,7.70
2022-11-25T11:41:52.143Z,7.80
2022-11-25T11:44:54.273Z,7.90
2022-11-25T11:47:42.605Z,7.90
2022-11-25T11:50:37.166Z,8.00
2022-11-25T11:53:26.607Z,8.00
2022-11-25T11:56:35.991Z,8.10
2022-11-25T11:59:40.330Z,8.10
2022-11-25T12:02:43.489Z,8.10
2022-11-25T12:05:11.224Z,8.20
2022-11-25T12:08:32.263Z,8.20
2022-11-25T12:11:20.886Z,8.20
2022-11-25T12:14:20.123Z,8.20
2022-11-25T12:17:02.080Z,8.30
2022-11-25T12:20:15.611Z,8.40
2022-11-25T12:23:14.000Z,8.50
2022-11-25T12:25:43.241Z,8.50
2022-11-25T12:31:53.441Z,8.60
2022-11-25T12:34:37.125Z,8.40
2022-11-25T12:37:16.065Z,8.50
2022-11-25T12:40:10.210Z,8.50
2022-11-25T12:42:40.876Z,8.50
2022-11-25T12:45:24.301Z,8.50
2022-11-25T12:47:53.345Z,8.50
2022-11-25T12:50:44.067Z,8.50
2022-11-25T12:53:44.294Z,8.40
2022-11-25T12:56:24.565Z,8.40
2022-11-25T12:59:30.613Z,8.40
2022-11-25T13:02:46.764Z,8.50
2022-11-25T13:05:44.156Z,8.60
2022-11-25T13:08:29.617Z,8.50
2022-11-25T13:11:40.349Z,8.50
2022-11-25T13:14:49.160Z,8.50
2022-11-25T13:17:18.580Z,8.50
2022-11-25T13:19:47.027Z,8.60
2022-11-25T13:22:20.743Z,8.70
2022-11-25T13:24:48.656Z,8.80
2022-11-25T13:27:40.181Z,8.80
2022-11-25T13:30:33.848Z,8.90
2022-11-25T13:33:13.775Z,8.70
2022-11-25T13:35:44.269Z,8.80
2022-11-25T13:38:59.455Z,8.70
2022-11-25T13:41:44.165Z,8.70
2022-11-25T13:44:29.751Z,8.60
2022-11-25T13:47:01.671Z,8.50
2022-11-25T13:49:53.008Z,8.60
2022-11-25T13:52:45.510Z,8.60
2022-11-25T13:55:16.917Z,8.60
2022-11-25T13:58:20.021Z,8.50
2022-11-25T14:01:26.195Z,8.60
2022-11-25T14:04:00.378Z,8.70
2022-11-25T14:07:26.329Z,8.70
2022-11-25T14:10:45.857Z,8.80
2022-11-25T14:13:34.665Z,8.80
2022-11-25T14:16:55.347Z,8.80
2022-11-25T14:19:52.935Z,8.90
2022-11-25T14:23:05.487Z,8.90
2022-11-25T14:25:50.569Z,8.90
2022-11-25T14:28:52.259Z,8.90
2022-11-25T14:31:30.736Z,8.90
2022-11-25T14:34:04.390Z,9.00
2022-11-25T14:36:42.846Z,9.10
2022-11-25T14:39:33.948Z,9.00
2022-11-25T14:42:17.449Z,9.00
2022-11-25T14:45:01.051Z,9.00
2022-11-25T14:47:39.388Z,9.00
2022-11-25T14:53:11.286Z,9.00
2022-11-25T14:55:39.198Z,8.90
2022-11-25T14:58:06.944Z,9.00
2022-11-25T15:00:34.865Z,9.10
2022-11-25T15:03:06.766Z,9.10
2022-11-25T15:05:41.010Z,9.00
2022-11-25T15:08:15.068Z,9.00
2022-11-25T15:11:00.109Z,8.90
2022-11-25T15:14:10.335Z,8.90
2022-11-25T15:16:41.557Z,8.90
2022-11-25T15:19:20.966Z,8.90
2022-11-25T15:24:55.427Z,8.80
2022-11-25T15:27:28.747Z,8.80
2022-11-25T15:29:58.576Z,8.80
2022-11-25T15:32:33.338Z,8.90
2022-11-25T15:35:02.348Z,8.90
2022-11-25T15:37:30.383Z,8.90
2022-11-25T15:40:42.031Z,8.90
2022-11-25T15:43:29.728Z,9.00
2022-11-25T15:46:03.943Z,9.00
2022-11-25T15:48:47.578Z,8.90
2022-11-25T15:51:29.971Z,8.90
2022-11-25T15:54:13.454Z,8.90
2022-11-25T15:56:49.029Z,8.90
2022-11-25T15:59:53.285Z,8.90
2022-11-25T16:02:42.878Z,8.90
2022-11-25T16:05:16.176Z,8.90
2022-11-25T16:07:50.134Z,8.80
2022-11-25T16:10:26.670Z,8.80
2022-11-25T16:13:22.938Z,8.80
2022-11-25T16:16:09.557Z,8.90
2022-11-25T16:19:01.823Z,8.90
2022-11-25T16:21:30.814Z,8.90
2022-11-25T16:24:24.560Z,8.90
2022-11-25T16:27:22.067Z,8.80
2022-11-25T16:30:07.124Z,8.80
2022-11-25T16:32:35.042Z,8.70
2022-11-25T16:35:22.215Z,8.70
2022-11-25T16:37:50.270Z,8.60
2022-11-25T16:40:19.415Z,8.60
2022-11-25T16:42:49.839Z,8.60
2022-11-25T16:45:23.857Z,8.50
2022-11-25T16:47:51.701Z,8.40
2022-11-25T16:50:21.678Z,8.40
2022-11-25T16:52:50.072Z,8.40
2022-11-25T16:55:18.730Z,8.40
2022-11-25T16:57:47.032Z,8.40
2022-11-25T17:00:17.314Z,8.30
2022-11-25T17:02:45.744Z,8.30
2022-11-25T17:05:25.903Z,8.20
2022-11-25T17:07:54.084Z,8.10
2022-11-25T17:10:22.143Z,8.10
2022-11-25T17:12:50.612Z,8.10
2022-11-25T17:15:24.960Z,8.10
2022-11-25T17:17:53.091Z,8.10
2022-11-25T17:20:24.831Z,8.10
2022-11-25T17:22:54.421Z,8.10
2022-11-25T17:25:24.168Z,8.10
2022-11-25T17:27:52.763Z,8.00
2022-11-25T17:30:27.620Z,8.00
2022-11-25T17:33:10.921Z,8.00
2022-11-25T17:35:38.694Z,8.00
2022-11-25T17:38:18.956Z,7.90
2022-11-25T17:40:47.697Z,7.90
2022-11-25T17:43:19.262Z,7.90
2022-11-25T17:45:47.808Z,8.00
2022-11-25T17:48:18.203Z,8.00
2022-11-25T17:50:47.323Z,8.00
2022-11-25T17:53:15.113Z,8.00
2022-11-25T17:55:42.928Z,8.00
2022-11-25T17:58:14.615Z,8.00
2022-11-25T18:00:43.738Z,8.00
2022-11-25T18:03:14.888Z,8.10
2022-11-25T18:05:42.811Z,8.10
2022-11-25T18:08:10.586Z,8.10
2022-11-25T18:10:39.296Z,8.20
2022-11-25T18:13:07.052Z,8.20
2022-11-25T18:15:34.994Z,8.20
2022-11-25T18:18:18.840Z,8.20
2022-11-25T18:20:46.831Z,8.20
2022-11-25T18:23:14.788Z,8.10
2022-11-25T18:25:43.354Z,8.10
2022-11-25T18:28:20.913Z,8.10
2022-11-25T18:30:50.196Z,8.10
2022-11-25T18:33:19.221Z,8.10
2022-11-25T18:35:48.086Z,8.00
2022-11-25T18:38:15.887Z,8.00
2022-11-25T18:40:48.913Z,8.00
2022-11-25T18:43:24.969Z,8.00
2022-11-25T18:45:54.339Z,8.00
2022-11-25T18:48:25.293Z,8.00
2022-11-25T18:50:56.105Z,8.10
2022-11-25T18:53:24.231Z,8.10
2022-11-25T18:55:52.070Z,8.10
2022-11-25T18:58:24.852Z,8.10
2022-11-25T19:01:02.177Z,8.20
2022-11-25T19:03:30.288Z,8.20
2022-11-25T19:06:03.237Z,8.20
2022-11-25T19:08:31.569Z,8.20
2022-11-25T19:10:59.380Z,8.20
2022-11-25T19:13:35.264Z,8.20
2022-11-25T19:16:12.919Z,8.30
2022-11-25T19:18:41.781Z,8.30
2022-11-25T19:21:18.441Z,8.30
2022-11-25T19:23:46.772Z,8.20
2022-11-25T19:26:25.803Z,8.20
2022-11-25T19:29:04.328Z,8.20
2022-11-25T19:31:34.105Z,8.20
2022-11-25T19:34:02.125Z,8.20
2022-11-25T19:36:31.239Z,8.20
2022-11-25T19:38:59.109Z,8.20
2022-11-25T19:41:27.319Z,8.20
2022-11-25T19:43:55.078Z,8.30
2022-11-25T19:46:36.777Z,8.30
2022-11-25T19:49:15.529Z,8.30
2022-11-25T19:51:43.695Z,8.30
2022-11-25T19:54:15.030Z,8.30
2022-11-25T19:56:43.680Z,8.20
2022-11-25T19:59:12.080Z,8.20
2022-11-25T20:01:44.721Z,8.20
2022-11-25T20:04:20.997Z,8.20
2022-11-25T20:06:49.789Z,8.10
2022-11-25T20:09:17.636Z,8.10
2022-11-25T20:11:45.384Z,8.10
2022-11-25T20:14:13.245Z,8.10
2022-11-25T20:16:41.815Z,8.10
2022-11-25T20:19:17.958Z,8.10
2022-11-25T20:21:46.629Z,8.10
2022-11-25T20:24:19.634Z,8.10
2022-11-25T20:26:48.937Z,8.10
2022-11-25T20:29:21.320Z,8.10
2022-11-25T20:31:50.465Z,8.10
2022-11-25T20:34:18.296Z,8.00
2022-11-25T20:36:46.069Z,8.00
2022-11-25T20:39:19.439Z,8.00
2022-11-25T20:41:50.397Z,8.00
2022-11-25T20:44:19.920Z,7.90
2022-11-25T20:46:48.172Z,7.90
2022-11-25T20:49:29.296Z,7.90
2022-11-25T20:51:57.915Z,7.90
2022-11-25T20:54:25.829Z,7.90
2022-11-25T20:56:56.480Z,7.90
2022-11-25T20:59:24.746Z,7.90
2022-11-25T21:01:54.582Z,8.00
2022-11-25T21:04:22.649Z,8.10
2022-11-25T21:06:50.404Z,8.10
2022-11-25T21:09:26.445Z,8.10
2022-11-25T21:11:54.188Z,8.10
2022-11-25T21:14:21.950Z,8.00
2022-11-25T21:16:49.956Z,8.00
2022-11-25T21:19:17.979Z,8.10
2022-11-25T21:21:49.487Z,8.10
2022-11-25T21:24:32.275Z,8.10
2022-11-25T21:27:08.780Z,8.20
2022-11-25T21:29:42.140Z,8.20
2022-11-25T21:32:30.173Z,8.20
2022-11-25T21:34:58.263Z,8.20
2022-11-25T21:37:36.539Z,8.20
2022-11-25T21:40:06.743Z,8.20
2022-11-25T21:42:34.555Z,8.20
2022-11-25T21:45:02.369Z,8.10
2022-11-25T21:47:31.199Z,8.10
2022-11-25T21:49:59.321Z,8.10
2022-11-25T21:52:27.130Z,8.10
2022-11-25T21:54:54.893Z,8.10
2022-11-25T21:57:28.191Z,8.10
2022-11-25T21:59:56.380Z,8.00
2022-11-25T22:02:25.261Z,7.90
2022-11-25T22:04:53.197Z,7.90
2022-11-25T22:07:21.854Z,8.10
2022-11-25T22:09:51.907Z,8.20
2022-11-25T22:12:30.613Z,8.20
2022-11-25T22:14:59.637Z,8.20
2022-11-25T22:17:29.277Z,8.20
2022-11-25T22:19:57.775Z,8.20
2022-11-25T22:22:25.530Z,8.20
2022-11-25T22:24:53.333Z,8.20
2022-11-25T22:27:25.921Z,8.10
2022-11-25T22:29:55.631Z,8.10
2022-11-25T22:32:23.381Z,8.00
2022-11-25T22:34:51.133Z,8.00
2022-11-25T22:37:22.165Z,8.00
2022-11-25T22:39:50.738Z,7.90
2022-11-25T22:42:29.609Z,7.90
2022-11-25T22:45:00.105Z,8.00
2022-11-25T22:47:43.890Z,7.90
2022-11-25T22:50:31.181Z,8.00
2022-11-25T22:53:00.553Z,7.90
2022-11-25T22:55:32.118Z,7.90
2022-11-25T22:58:01.982Z,7.90
2022-11-25T23:00:38.550Z,7.90
2022-11-25T23:03:12.542Z,7.90
2022-11-25T23:05:40.740Z,8.00
2022-11-25T23:08:18.227Z,8.00
2022-11-25T23:10:47.411Z,8.00
2022-11-25T23:13:17.130Z,8.00
2022-11-25T23:15:56.329Z,7.90
2022-11-25T23:18:39.792Z,8.00
2022-11-25T23:21:24.822Z,7.90
2022-11-25T23:23:52.621Z,7.90
2022-11-25T23:26:20.890Z,7.90
2022-11-25T23:28:49.043Z,7.80
2022-11-25T23:31:17.154Z,7.80
2022-11-25T23:33:51.144Z,7.80
2022-11-25T23:36:23.584Z,7.80
2022-11-25T23:39:01.271Z,7.90
2022-11-25T23:41:32.679Z,7.80
2022-11-25T23:44:17.540Z,7.90
2022-11-25T23:46:45.459Z,7.90
2022-11-25T23:49:28.880Z,7.90
2022-11-25T23:52:04.651Z,7.90
2022-11-25T23:54:41.464Z,7.80
2022-11-25T23:57:22.974Z,7.80
2022-11-25T23:59:52.230Z,7.90
